Time;durP1;ratioP1;P1;durP2;ratioP2;P2;SDS_P1;SDS_P2;PMS_P1;PMS_P2;Temp;Humidity;BMP_temperature;BMP_pressure;BME280_temperature;BME280_humidity;BME280_pressure;Samples;Min_cycle;Max_cycle;Signal;HPM_P1;HPM_P2
2021/12/05 00:22:47;;;;;;;16.83;12.10;;;2.60;97.50;;;;;;5059083;28;20115;-64
2021/12/05 00:25:21;;;;;;;17.13;12.10;;;2.60;97.40;;;;;;5057693;28;20471;-64
2021/12/05 00:27:56;;;;;;;17.80;13.18;;;2.70;97.50;;;;;;5060854;28;20037;-64
2021/12/05 00:47:01;;;;;;;16.90;12.10;;;2.70;97.30;;;;;;5055567;28;20669;-64
2021/12/05 00:57:52;;;;;;;20.98;12.45;;;2.70;97.40;;;;;;5061832;28;20499;-65
2021/12/05 01:13:55;;;;;;;19.67;12.70;;;2.60;97.90;;;;;;5062047;28;20162;-64
2021/12/05 01:16:22;;;;;;;19.58;13.02;;;2.60;98.00;;;;;;5048263;28;20124;-65
2021/12/05 01:18:48;;;;;;;18.52;12.90;;;2.60;98.10;;;;;;5063482;28;20037;-65
2021/12/05 01:21:17;;;;;;;19.75;13.35;;;2.60;98.10;;;;;;5059218;28;20032;-64
2021/12/05 01:27:37;;;;;;;20.35;13.38;;;2.50;98.10;;;;;;5050893;28;20148;-65
2021/12/05 01:35:18;;;;;;;18.70;13.43;;;2.50;98.50;;;;;;5060890;28;20094;-65
2021/12/05 01:40:46;;;;;;;19.73;14.15;;;2.50;98.70;;;;;;5060721;28;20059;-65
2021/12/05 01:59:33;;;;;;;22.60;14.93;;;2.50;98.40;;;;;;5064788;28;20596;-64
2021/12/05 02:10:56;;;;;;;19.25;14.35;;;2.40;98.40;;;;;;5059174;28;20097;-63
2021/12/05 02:32:16;;;;;;;23.77;15.02;;;2.30;99.30;;;;;;5059485;28;20070;-65
2021/12/05 02:38:02;;;;;;;19.08;14.50;;;2.30;99.20;;;;;;5044063;28;20441;-64
2021/12/05 02:42:52;;;;;;;22.33;15.45;;;2.40;99.10;;;;;;5062771;28;20478;-64
2021/12/05 02:45:18;;;;;;;19.98;13.98;;;2.40;99.00;;;;;;5061884;28;20567;-65
2021/12/05 02:47:49;;;;;;;18.73;14.07;;;2.40;99.10;;;;;;5061864;28;20056;-64
2021/12/05 02:50:17;;;;;;;24.88;15.63;;;2.40;99.00;;;;;;5058467;28;20041;-64
2021/12/05 02:52:43;;;;;;;21.13;14.98;;;2.30;99.00;;;;;;5060114;28;20021;-64
2021/12/05 02:55:22;;;;;;;20.52;14.63;;;2.30;99.10;;;;;;5057355;28;20035;-64
2021/12/05 02:57:54;;;;;;;21.30;15.52;;;2.30;99.10;;;;;;5060145;28;20028;-64
2021/12/05 03:00:36;;;;;;;20.10;14.45;;;2.30;99.10;;;;;;5059867;28;20658;-65
2021/12/05 03:03:03;;;;;;;22.60;14.80;;;2.30;99.20;;;;;;5055184;28;20085;-65
2021/12/05 03:05:29;;;;;;;21.95;14.77;;;2.30;99.30;;;;;;5055846;28;21299;-65
2021/12/05 03:08:00;;;;;;;19.70;15.20;;;2.40;99.20;;;;;;5057463;28;20028;-64
2021/12/05 03:10:27;;;;;;;21.83;14.82;;;2.40;99.10;;;;;;5057367;28;20522;-64
2021/12/05 03:12:52;;;;;;;24.27;15.77;;;2.40;99.20;;;;;;5057236;28;20031;-64
2021/12/05 03:15:20;;;;;;;21.85;15.45;;;2.40;99.00;;;;;;5056148;28;20032;-64
2021/12/05 03:17:45;;;;;;;20.67;15.48;;;2.40;99.20;;;;;;5057863;28;20033;-65
2021/12/05 03:20:13;;;;;;;20.65;15.13;;;2.50;99.20;;;;;;5057957;28;20476;-64
2021/12/05 03:22:38;;;;;;;19.67;15.50;;;2.50;99.10;;;;;;5056973;28;20116;-65
2021/12/05 03:25:06;;;;;;;18.60;13.85;;;2.50;99.10;;;;;;5054877;28;20497;-65
2021/12/05 03:27:32;;;;;;;20.40;14.90;;;2.50;99.00;;;;;;5053775;28;20028;-64
2021/12/05 03:29:58;;;;;;;21.63;15.38;;;2.50;99.40;;;;;;5055783;28;20036;-64
2021/12/05 03:32:24;;;;;;;21.95;14.88;;;2.50;99.10;;;;;;5056259;28;20031;-64
2021/12/05 03:34:50;;;;;;;20.83;15.18;;;2.40;99.20;;;;;;5055411;28;20021;-64
2021/12/05 03:37:16;;;;;;;20.63;15.52;;;2.40;99.20;;;;;;5054448;28;20032;-64
2021/12/05 03:39:42;;;;;;;21.55;16.23;;;2.50;99.20;;;;;;5057077;28;20061;-64
2021/12/05 03:42:08;;;;;;;21.23;15.43;;;2.40;99.20;;;;;;5052421;28;20033;-64
2021/12/05 03:44:36;;;;;;;22.42;15.93;;;2.40;99.30;;;;;;5056118;28;20451;-65
2021/12/05 03:47:05;;;;;;;21.02;15.93;;;2.40;99.30;;;;;;5057716;28;20044;-65
2021/12/05 03:49:32;;;;;;;20.83;14.98;;;2.40;99.20;;;;;;5056552;28;20147;-65
2021/12/05 03:52:06;;;;;;;22.25;15.80;;;2.40;99.20;;;;;;5057051;28;20029;-64
2021/12/05 03:54:32;;;;;;;21.75;15.75;;;2.40;99.10;;;;;;5054648;28;20036;-64
2021/12/05 03:56:59;;;;;;;21.98;16.17;;;2.50;99.00;;;;;;5055486;28;20460;-65
2021/12/05 03:59:28;;;;;;;20.38;14.48;;;2.50;99.10;;;;;;5055954;28;20029;-64
2021/12/05 04:01:55;;;;;;;18.92;14.73;;;2.40;99.10;;;;;;5055105;28;20028;-65
2021/12/05 04:04:21;;;;;;;21.67;15.60;;;2.50;99.30;;;;;;5057400;28;20042;-64
2021/12/05 04:06:48;;;;;;;24.38;16.63;;;2.50;99.20;;;;;;5055318;28;21003;-64
2021/12/05 04:09:17;;;;;;;22.38;16.17;;;2.50;99.20;;;;;;5051295;28;20032;-65
2021/12/05 04:11:55;;;;;;;22.52;17.00;;;2.50;99.20;;;;;;5056592;28;20506;-64
2021/12/05 04:14:20;;;;;;;24.23;17.40;;;2.50;99.30;;;;;;5056693;28;20024;-64
2021/12/05 04:16:46;;;;;;;24.42;17.55;;;2.50;99.30;;;;;;5054154;28;20758;-65
2021/12/05 04:19:12;;;;;;;23.15;16.95;;;2.50;99.20;;;;;;5054974;28;20556;-65
2021/12/05 04:21:39;;;;;;;24.23;17.75;;;2.60;99.20;;;;;;5055517;28;20075;-65
2021/12/05 04:24:07;;;;;;;25.27;17.08;;;2.50;99.00;;;;;;5056221;28;20033;-65
2021/12/05 04:26:34;;;;;;;23.35;16.55;;;2.60;99.10;;;;;;5055125;28;20028;-65
2021/12/05 04:29:00;;;;;;;23.73;17.25;;;2.50;99.00;;;;;;5054621;28;20087;-63
2021/12/05 04:31:25;;;;;;;22.95;16.45;;;2.50;99.00;;;;;;5056530;28;20749;-65
2021/12/05 04:33:51;;;;;;;23.30;16.23;;;2.50;99.10;;;;;;5057051;28;20029;-65
2021/12/05 04:36:18;;;;;;;22.00;16.85;;;2.60;99.10;;;;;;5057617;28;20028;-65
2021/12/05 04:38:45;;;;;;;19.35;15.45;;;2.50;99.10;;;;;;5058984;28;20523;-65
2021/12/05 04:41:11;;;;;;;22.05;16.52;;;2.50;99.00;;;;;;5055326;28;20048;-64
2021/12/05 04:43:38;;;;;;;22.75;17.05;;;2.50;99.10;;;;;;5062911;28;20128;-65
2021/12/05 04:46:19;;;;;;;24.10;16.20;;;2.50;99.20;;;;;;5060599;28;20541;-65
2021/12/05 04:48:48;;;;;;;25.88;18.27;;;2.50;99.00;;;;;;5056318;28;20075;-65
2021/12/05 04:51:14;;;;;;;28.70;19.33;;;2.50;99.00;;;;;;5056766;28;20040;-64
2021/12/05 04:53:40;;;;;;;26.67;19.45;;;2.40;99.10;;;;;;5055539;28;20033;-65
2021/12/05 04:56:06;;;;;;;28.40;19.73;;;2.40;99.20;;;;;;5057445;28;20036;-65
2021/12/05 04:58:32;;;;;;;25.65;18.80;;;2.40;99.20;;;;;;5059284;28;20021;-65
2021/12/05 05:00:58;;;;;;;30.27;19.35;;;2.40;99.30;;;;;;5056047;28;20025;-65
2021/12/05 05:03:26;;;;;;;26.63;18.27;;;2.40;99.30;;;;;;5054357;28;20035;-65
2021/12/05 05:06:00;;;;;;;22.35;17.17;;;2.40;99.30;;;;;;5057486;28;20033;-65
2021/12/05 05:08:30;;;;;;;29.45;19.75;;;2.40;99.30;;;;;;5057761;28;20098;-65
2021/12/05 05:11:01;;;;;;;27.90;17.85;;;2.30;99.30;;;;;;5057490;28;20482;-65
2021/12/05 05:13:27;;;;;;;27.92;17.83;;;2.30;99.40;;;;;;5063143;28;20128;-65
2021/12/05 05:15:53;;;;;;;25.05;17.40;;;2.40;99.60;;;;;;5060035;28;20461;-65
2021/12/05 05:18:20;;;;;;;25.13;17.02;;;2.40;99.60;;;;;;5057688;28;20052;-64
2021/12/05 05:20:58;;;;;;;26.20;17.83;;;2.40;99.40;;;;;;5053585;28;20111;-65
2021/12/05 05:40:06;;;;;;;26.05;17.17;;;2.50;99.10;;;;;;5060262;28;20056;-64
2021/12/05 05:50:16;;;;;;;26.83;19.17;;;2.30;99.20;;;;;;5063209;28;20101;-63
2021/12/05 05:52:42;;;;;;;26.38;19.05;;;2.30;99.30;;;;;;5068558;28;20033;-64
2021/12/05 05:55:10;;;;;;;31.05;20.75;;;2.30;99.40;;;;;;5063211;28;20039;-64
2021/12/05 05:57:42;;;;;;;24.33;17.58;;;2.30;99.40;;;;;;5059259;28;20471;-64
2021/12/05 06:00:18;;;;;;;30.77;21.20;;;2.30;99.50;;;;;;5062615;28;20040;-64
2021/12/05 06:05:31;;;;;;;23.45;16.70;;;2.40;99.50;;;;;;5060648;28;20078;-64
2021/12/05 06:07:56;;;;;;;26.08;18.05;;;2.40;99.40;;;;;;5061588;28;20031;-64
2021/12/05 06:10:26;;;;;;;25.85;18.42;;;2.50;99.20;;;;;;5058513;28;20461;-64
2021/12/05 06:12:52;;;;;;;22.55;16.25;;;2.50;99.10;;;;;;5064562;28;20053;-64
2021/12/05 06:15:20;;;;;;;27.63;18.38;;;2.50;99.20;;;;;;5059377;28;20113;-64
2021/12/05 06:17:46;;;;;;;25.27;17.90;;;2.50;99.20;;;;;;5062053;28;20038;-64
2021/12/05 06:20:23;;;;;;;24.65;18.55;;;2.50;99.20;;;;;;5060120;28;20028;-64
2021/12/05 06:22:49;;;;;;;25.77;17.80;;;2.50;99.20;;;;;;5061133;28;20032;-64
2021/12/05 06:25:20;;;;;;;33.25;20.63;;;2.50;99.20;;;;;;5062754;28;20037;-63
2021/12/05 06:27:47;;;;;;;24.35;17.33;;;2.50;99.10;;;;;;5063064;28;20036;-64
2021/12/05 06:30:31;;;;;;;27.17;18.10;;;2.50;99.00;;;;;;5058184;28;20119;-64
2021/12/05 06:38:41;;;;;;;24.30;18.05;;;2.50;98.90;;;;;;5060032;28;20047;-64
2021/12/05 06:46:16;;;;;;;28.25;18.90;;;2.40;99.10;;;;;;5060749;28;20154;-65
2021/12/05 06:48:43;;;;;;;29.30;19.23;;;2.40;99.10;;;;;;5061793;28;20040;-63
2021/12/05 06:51:14;;;;;;;32.17;21.48;;;2.40;99.10;;;;;;5061408;28;20494;-65
2021/12/05 06:53:40;;;;;;;38.30;22.98;;;2.50;99.20;;;;;;5062491;28;20033;-64
2021/12/05 06:56:07;;;;;;;32.65;20.73;;;2.50;99.40;;;;;;5060645;28;20483;-64
2021/12/05 06:58:34;;;;;;;34.05;22.13;;;2.50;99.10;;;;;;5058994;28;20032;-64
2021/12/05 07:01:01;;;;;;;32.40;21.92;;;2.50;99.10;;;;;;5061183;28;20028;-64
2021/12/05 07:03:29;;;;;;;49.42;28.75;;;2.50;99.20;;;;;;5058340;28;20041;-64
2021/12/05 07:06:05;;;;;;;35.08;22.17;;;2.50;99.40;;;;;;5058950;28;20059;-64
2021/12/05 07:08:33;;;;;;;32.38;21.00;;;2.50;99.20;;;;;;5055669;28;20036;-64
2021/12/05 07:11:16;;;;;;;31.15;20.20;;;2.40;99.20;;;;;;5061002;28;20028;-65
2021/12/05 07:19:19;;;;;;;32.75;21.85;;;2.40;99.50;;;;;;5057199;28;20064;-66
2021/12/05 07:40:30;;;;;;;37.40;23.33;;;2.50;99.40;;;;;;5062768;28;20190;-65
2021/12/05 07:43:07;;;;;;;35.10;22.42;;;2.50;99.30;;;;;;5060165;28;20028;-65
2021/12/05 07:45:42;;;;;;;41.25;25.75;;;2.50;99.30;;;;;;5054899;28;20143;-64
2021/12/05 07:48:13;;;;;;;40.47;26.77;;;2.40;99.80;;;;;;5058793;28;20094;-63
2021/12/05 07:51:24;;;;;;;35.85;24.73;;;2.50;99.70;;;;;;5041102;28;20047;-63
2021/12/05 07:53:54;;;;;;;35.05;23.27;;;2.60;99.50;;;;;;5054250;28;20049;-65
2021/12/05 07:57:16;;;;;;;35.92;22.90;;;2.60;99.50;;;;;;5057183;28;20111;-64
2021/12/05 08:15:44;;;;;;;56.58;36.17;;;3.00;98.80;;;;;;5061907;28;20039;-64
2021/12/05 08:18:10;;;;;;;32.92;22.73;;;3.00;98.50;;;;;;5060464;28;20025;-64
2021/12/05 08:20:40;;;;;;;35.50;23.90;;;3.10;98.60;;;;;;5065020;28;20410;-64
2021/12/05 08:23:06;;;;;;;38.45;22.98;;;3.10;98.40;;;;;;5057930;28;20103;-65
2021/12/05 08:25:36;;;;;;;52.80;33.17;;;3.10;98.30;;;;;;5062101;28;20828;-65
2021/12/05 08:31:26;;;;;;;68.93;40.53;;;3.20;98.20;;;;;;5025231;28;20052;-65
2021/12/05 09:38:59;;;;;;;31.45;20.77;;;3.70;98.00;;;;;;5023723;28;20099;-64
2021/12/05 10:03:37;;;;;;;29.58;21.60;;;3.70;97.70;;;;;;5060802;28;20150;-64
2021/12/05 10:08:52;;;;;;;32.00;21.15;;;3.80;97.70;;;;;;5059326;28;20035;-65
2021/12/05 10:11:29;;;;;;;30.48;21.33;;;3.80;97.60;;;;;;5062888;28;20029;-63
2021/12/05 10:14:25;;;;;;;32.83;23.25;;;3.80;97.50;;;;;;5058750;28;20218;-64
2021/12/05 10:37:22;;;;;;;41.13;23.08;;;3.90;97.30;;;;;;5062940;28;20060;-66
2021/12/05 10:40:05;;;;;;;31.20;22.50;;;3.80;97.80;;;;;;5059534;28;20076;-65
2021/12/05 10:42:46;;;;;;;36.13;23.33;;;3.90;98.30;;;;;;5057915;28;20595;-64
2021/12/05 10:45:42;;;;;;;29.63;22.13;;;3.90;98.00;;;;;;5053716;28;20154;-65
2021/12/05 10:48:29;;;;;;;34.05;21.95;;;3.90;97.90;;;;;;5057678;28;20028;-65
2021/12/05 10:51:05;;;;;;;34.53;23.10;;;3.90;98.00;;;;;;5058457;28;20044;-65
2021/12/05 10:53:38;;;;;;;31.92;21.02;;;3.90;97.90;;;;;;5059168;28;20056;-65
2021/12/05 10:56:17;;;;;;;34.55;22.65;;;3.90;97.80;;;;;;5056270;28;20032;-64
2021/12/05 10:58:47;;;;;;;31.58;22.58;;;3.90;97.80;;;;;;5060154;28;20395;-64
2021/12/05 11:01:16;;;;;;;36.97;24.92;;;3.90;97.90;;;;;;5056989;28;20491;-65
2021/12/05 11:03:42;;;;;;;34.15;24.13;;;3.90;97.80;;;;;;5039388;28;20700;-65
2021/12/05 11:06:20;;;;;;;38.03;24.77;;;4.00;97.60;;;;;;5059706;28;20064;-65
2021/12/05 11:08:45;;;;;;;33.42;23.25;;;3.90;97.60;;;;;;5060623;28;20025;-66
2021/12/05 11:11:14;;;;;;;39.72;25.10;;;3.90;97.90;;;;;;5058967;28;20044;-67
2021/12/05 11:13:43;;;;;;;37.05;25.50;;;3.80;97.90;;;;;;5057256;28;20458;-67
2021/12/05 11:16:30;;;;;;;35.72;25.48;;;3.90;97.90;;;;;;5060365;28;20029;-66
2021/12/05 11:18:56;;;;;;;47.60;35.65;;;4.00;97.90;;;;;;5055978;28;20877;-66
2021/12/05 11:21:25;;;;;;;41.15;27.90;;;4.00;97.90;;;;;;5058265;28;20037;-67
2021/12/05 11:24:11;;;;;;;33.83;24.70;;;4.00;97.90;;;;;;5056356;28;20651;-66
2021/12/05 11:26:40;;;;;;;35.40;25.42;;;4.00;97.80;;;;;;5054589;28;20059;-65
2021/12/05 11:29:07;;;;;;;38.55;26.08;;;4.10;97.80;;;;;;5053229;28;20373;-65
2021/12/05 11:31:34;;;;;;;36.00;25.38;;;4.10;97.70;;;;;;5053496;28;20044;-65
2021/12/05 11:34:01;;;;;;;39.83;26.33;;;4.10;97.40;;;;;;5057867;28;20175;-65
2021/12/05 11:36:30;;;;;;;35.92;24.20;;;4.10;97.60;;;;;;5056184;28;20093;-67
2021/12/05 11:38:56;;;;;;;32.97;22.70;;;4.10;97.80;;;;;;5060547;28;20082;-66
2021/12/05 11:41:23;;;;;;;39.63;25.70;;;4.20;97.50;;;;;;5039002;28;20524;-65
2021/12/05 11:43:53;;;;;;;36.88;24.48;;;4.20;97.50;;;;;;5034488;28;20038;-66
2021/12/05 11:46:36;;;;;;;37.75;24.98;;;4.10;97.60;;;;;;5039601;28;20404;-63
2021/12/05 11:49:09;;;;;;;39.65;25.83;;;4.20;97.40;;;;;;5035579;28;20051;-67
2021/12/05 11:51:45;;;;;;;37.58;26.35;;;4.10;97.50;;;;;;5042267;28;20025;-65
2021/12/05 11:54:31;;;;;;;43.55;28.05;;;4.20;97.50;;;;;;5038384;28;20615;-64
2021/12/05 11:57:12;;;;;;;43.00;28.52;;;4.10;97.60;;;;;;5037964;28;20076;-66
2021/12/05 12:00:02;;;;;;;45.08;28.92;;;4.20;97.50;;;;;;5040697;28;20402;-66
2021/12/05 12:02:30;;;;;;;39.67;27.48;;;4.20;97.40;;;;;;5042648;28;20026;-66
2021/12/05 12:04:59;;;;;;;39.63;25.55;;;4.20;97.50;;;;;;5041350;28;20025;-66
2021/12/05 12:07:46;;;;;;;42.10;26.75;;;4.20;97.40;;;;;;5041260;28;21026;-65
2021/12/05 12:10:24;;;;;;;43.13;28.55;;;4.20;97.60;;;;;;5040221;28;20418;-66
2021/12/05 12:12:58;;;;;;;47.28;30.00;;;4.30;97.50;;;;;;5040737;28;20090;-66
2021/12/05 12:15:26;;;;;;;41.20;28.10;;;4.30;97.30;;;;;;5041792;28;20502;-65
2021/12/05 12:17:55;;;;;;;42.88;27.45;;;4.20;97.50;;;;;;5045034;28;20035;-66
2021/12/05 12:20:25;;;;;;;41.28;28.05;;;4.20;97.50;;;;;;5041325;28;20036;-66
2021/12/05 12:22:53;;;;;;;43.47;29.10;;;4.30;97.50;;;;;;5040104;28;20028;-66
2021/12/05 12:25:31;;;;;;;42.10;28.67;;;4.30;97.70;;;;;;5039938;28;20033;-65
2021/12/05 12:27:57;;;;;;;42.72;28.13;;;4.30;97.30;;;;;;5040985;28;20025;-65
2021/12/05 12:30:26;;;;;;;55.60;35.45;;;4.30;97.20;;;;;;5040488;28;20468;-65
2021/12/05 12:33:13;;;;;;;50.80;33.55;;;4.20;97.20;;;;;;5038253;28;20144;-65
2021/12/05 12:35:39;;;;;;;38.15;26.25;;;4.20;97.30;;;;;;5041626;28;20583;-65
2021/12/05 12:38:10;;;;;;;40.50;26.98;;;4.20;97.20;;;;;;5040158;28;20034;-65
2021/12/05 12:40:57;;;;;;;43.78;27.75;;;4.10;97.30;;;;;;5050252;28;20155;-65
2021/12/05 12:43:44;;;;;;;71.75;53.10;;;4.10;97.40;;;;;;5060483;28;20494;-65
2021/12/05 12:46:14;;;;;;;43.15;29.70;;;4.00;97.50;;;;;;5060364;28;20037;-65
2021/12/05 12:48:40;;;;;;;47.17;33.25;;;4.00;97.60;;;;;;5065168;28;20709;-65
2021/12/05 12:51:06;;;;;;;45.58;30.80;;;4.00;97.70;;;;;;5065075;28;20116;-66
2021/12/05 12:53:37;;;;;;;43.10;28.25;;;4.00;97.70;;;;;;5061552;28;20086;-66
2021/12/05 12:56:17;;;;;;;53.38;37.03;;;4.00;97.60;;;;;;5064447;28;20036;-65
2021/12/05 12:58:49;;;;;;;45.72;28.35;;;4.10;97.70;;;;;;5062128;28;20056;-65
2021/12/05 13:12:44;;;;;;;42.20;27.07;;;4.20;97.50;;;;;;5063773;28;20039;-66
2021/12/05 13:15:28;;;;;;;42.08;27.38;;;4.10;97.50;;;;;;5061972;28;20059;-65
2021/12/05 13:18:01;;;;;;;38.65;26.75;;;4.10;97.60;;;;;;5062446;28;20060;-66
2021/12/05 13:20:42;;;;;;;43.83;28.48;;;4.10;97.70;;;;;;5064186;28;20158;-66
2021/12/05 13:23:15;;;;;;;46.92;27.38;;;4.10;97.70;;;;;;5066639;28;20025;-66
2021/12/05 13:25:58;;;;;;;43.50;27.95;;;4.20;97.60;;;;;;5065164;28;20041;-66
2021/12/05 13:28:37;;;;;;;44.55;27.77;;;4.20;97.60;;;;;;5064492;28;20025;-66
2021/12/05 13:31:28;;;;;;;37.10;25.58;;;4.20;97.60;;;;;;5063810;28;20032;-66
2021/12/05 13:34:18;;;;;;;120.88;76.10;;;4.20;97.60;;;;;;5058374;28;20029;-67
2021/12/05 13:36:57;;;;;;;83.65;55.50;;;4.20;97.50;;;;;;5058407;28;20501;-66
2021/12/05 13:39:34;;;;;;;42.22;28.17;;;4.20;97.50;;;;;;5063960;28;20031;-66
2021/12/05 13:42:00;;;;;;;42.58;28.17;;;4.20;97.70;;;;;;5059672;28;20029;-66
2021/12/05 13:45:04;;;;;;;42.72;28.50;;;4.20;97.70;;;;;;5063914;28;20135;-67
2021/12/05 13:47:37;;;;;;;43.85;28.45;;;4.20;97.60;;;;;;5064135;28;20025;-66
2021/12/05 13:50:18;;;;;;;39.88;26.98;;;4.20;97.70;;;;;;5064788;28;20021;-67
2021/12/05 13:53:03;;;;;;;44.92;28.65;;;4.20;97.60;;;;;;5063104;28;20094;-67
2021/12/05 13:55:41;;;;;;;45.08;29.25;;;4.20;97.60;;;;;;5058636;28;20025;-66
2021/12/05 13:58:25;;;;;;;45.25;29.10;;;4.20;97.60;;;;;;5062778;28;20021;-66
2021/12/05 14:01:27;;;;;;;43.67;29.20;;;4.20;97.50;;;;;;5059248;28;20440;-66
2021/12/05 14:03:55;;;;;;;44.80;28.13;;;4.20;97.60;;;;;;5046151;28;20618;-66
2021/12/05 14:06:53;;;;;;;71.43;48.75;;;4.20;97.50;;;;;;5063362;28;20028;-66
2021/12/05 14:09:20;;;;;;;71.50;48.22;;;4.20;97.50;;;;;;5059887;28;20039;-66
2021/12/05 14:11:52;;;;;;;45.47;31.02;;;4.20;97.70;;;;;;5059712;28;20033;-64
2021/12/05 14:14:22;;;;;;;54.20;32.78;;;4.30;97.70;;;;;;5061498;28;20025;-65
2021/12/05 14:16:50;;;;;;;52.17;33.60;;;4.30;97.80;;;;;;5063624;28;20039;-63
2021/12/05 14:19:20;;;;;;;52.03;32.15;;;4.30;97.90;;;;;;5062873;28;20107;-66
2021/12/05 14:21:51;;;;;;;47.65;32.28;;;4.30;98.00;;;;;;5060563;28;20039;-67
2021/12/05 14:24:20;;;;;;;52.50;31.92;;;4.30;97.90;;;;;;5060603;28;20651;-63
2021/12/05 14:26:52;;;;;;;51.28;31.00;;;4.20;98.00;;;;;;5063372;28;20020;-64
2021/12/05 14:29:20;;;;;;;46.85;30.92;;;4.20;98.00;;;;;;5061348;28;20023;-65
2021/12/05 14:31:50;;;;;;;46.30;31.13;;;4.20;98.00;;;;;;5059543;28;20067;-65
2021/12/05 14:34:16;;;;;;;46.90;30.52;;;4.10;98.10;;;;;;5066202;28;20028;-67
2021/12/05 14:36:46;;;;;;;42.60;29.70;;;4.20;98.10;;;;;;5064112;28;20036;-66
2021/12/05 14:39:18;;;;;;;43.30;30.48;;;4.20;98.00;;;;;;5064044;28;20037;-67
2021/12/05 14:41:46;;;;;;;44.13;30.08;;;4.10;98.10;;;;;;5060858;28;20048;-67
2021/12/05 14:44:13;;;;;;;52.85;37.58;;;4.10;98.10;;;;;;5062920;28;20035;-66
2021/12/05 14:46:53;;;;;;;44.75;30.05;;;4.10;98.20;;;;;;5062468;28;20039;-68
2021/12/05 14:49:22;;;;;;;41.15;27.23;;;4.20;98.30;;;;;;5058649;28;20028;-67
2021/12/05 14:51:48;;;;;;;65.00;44.72;;;4.20;98.30;;;;;;5062666;28;20110;-67
2021/12/05 14:54:21;;;;;;;42.70;28.92;;;4.20;98.10;;;;;;5062460;28;20568;-67
2021/12/05 14:56:46;;;;;;;38.72;24.92;;;4.20;98.20;;;;;;5058916;28;20076;-67
2021/12/05 14:59:14;;;;;;;41.22;28.88;;;4.20;98.30;;;;;;5060812;28;20505;-68
2021/12/05 15:01:43;;;;;;;40.83;26.85;;;4.20;98.30;;;;;;5061217;28;20506;-68
2021/12/05 15:04:10;;;;;;;39.53;26.40;;;4.10;98.10;;;;;;5061248;28;20036;-69
2021/12/05 15:06:42;;;;;;;35.65;25.63;;;4.20;98.40;;;;;;5060252;28;20032;-67
2021/12/05 15:09:21;;;;;;;39.72;25.45;;;4.20;98.40;;;;;;5057834;28;20048;-67
2021/12/05 15:11:53;;;;;;;42.17;26.25;;;4.20;98.50;;;;;;5060512;28;20103;-68
2021/12/05 15:14:19;;;;;;;41.05;25.75;;;4.20;98.50;;;;;;5066498;28;20465;-68
2021/12/05 15:16:59;;;;;;;42.88;28.35;;;4.30;98.40;;;;;;5063944;28;20032;-67
2021/12/05 15:19:25;;;;;;;42.45;27.92;;;4.30;98.20;;;;;;5061476;28;20025;-65
2021/12/05 15:21:51;;;;;;;40.75;26.48;;;4.20;98.10;;;;;;5066021;28;20175;-67
2021/12/05 15:24:19;;;;;;;37.45;25.60;;;4.20;98.40;;;;;;5063874;28;20881;-68
2021/12/05 15:26:45;;;;;;;32.67;22.98;;;4.30;98.60;;;;;;5058659;28;20061;-67
2021/12/05 15:29:11;;;;;;;34.00;23.52;;;4.30;98.50;;;;;;5062092;28;20043;-67
2021/12/05 15:31:39;;;;;;;37.83;25.25;;;4.30;98.30;;;;;;5062237;28;20033;-67
2021/12/05 15:34:31;;;;;;;33.17;23.48;;;4.40;98.10;;;;;;5060774;28;20036;-67
2021/12/05 15:36:59;;;;;;;36.38;23.65;;;4.40;98.20;;;;;;5062219;28;20494;-66
2021/12/05 15:39:30;;;;;;;34.85;23.48;;;4.40;98.20;;;;;;5058351;28;20037;-66
2021/12/05 15:41:57;;;;;;;33.67;22.90;;;4.50;98.00;;;;;;5059472;28;20020;-67
2021/12/05 15:44:36;;;;;;;34.03;23.48;;;4.40;97.90;;;;;;5057969;28;20650;-66
2021/12/05 15:47:10;;;;;;;39.75;24.73;;;4.40;97.90;;;;;;5058463;28;20556;-66
2021/12/05 15:49:47;;;;;;;39.85;26.05;;;4.30;97.80;;;;;;5066453;28;20030;-67
2021/12/05 15:52:13;;;;;;;39.80;26.40;;;4.30;97.60;;;;;;5059333;28;20111;-66
2021/12/05 15:54:42;;;;;;;34.78;25.50;;;4.20;97.60;;;;;;5066568;28;20106;-67
2021/12/05 15:57:22;;;;;;;41.67;26.98;;;4.20;97.60;;;;;;5059010;28;20032;-67
2021/12/05 15:59:48;;;;;;;39.17;28.38;;;4.20;97.70;;;;;;5059729;28;20050;-66
2021/12/05 16:02:19;;;;;;;37.10;27.95;;;4.10;97.60;;;;;;5058429;28;20041;-67
2021/12/05 16:04:46;;;;;;;37.47;27.02;;;3.90;98.00;;;;;;5061182;28;20031;-67
2021/12/05 16:07:12;;;;;;;40.42;27.58;;;3.90;98.10;;;;;;5059349;28;20067;-66
2021/12/05 16:09:40;;;;;;;42.70;27.40;;;3.80;98.30;;;;;;5061094;28;20040;-66
2021/12/05 16:12:13;;;;;;;42.85;27.13;;;3.80;98.40;;;;;;5059431;28;20024;-66
2021/12/05 16:14:42;;;;;;;43.00;28.42;;;3.90;98.50;;;;;;5063124;28;20036;-67
2021/12/05 16:17:21;;;;;;;40.47;28.33;;;3.90;98.30;;;;;;5062970;28;20024;-67
2021/12/05 16:20:09;;;;;;;37.72;25.70;;;3.90;98.30;;;;;;5063134;28;20748;-67
2021/12/05 16:22:54;;;;;;;37.15;27.10;;;3.90;98.30;;;;;;5060014;28;20028;-68
2021/12/05 16:25:20;;;;;;;39.72;27.35;;;4.00;98.30;;;;;;5061493;28;20415;-67
2021/12/05 16:27:50;;;;;;;39.80;26.63;;;4.00;98.30;;;;;;5060757;28;20114;-67
2021/12/05 16:30:24;;;;;;;39.92;26.17;;;4.00;98.30;;;;;;5060981;28;20032;-67
2021/12/05 16:32:50;;;;;;;37.47;25.27;;;4.00;98.20;;;;;;5057902;28;20060;-66
2021/12/05 16:35:34;;;;;;;42.38;28.55;;;4.00;98.10;;;;;;5063226;28;20033;-67
2021/12/05 16:38:02;;;;;;;43.38;27.25;;;4.10;98.10;;;;;;5059263;28;20033;-66
2021/12/05 16:40:56;;;;;;;39.70;26.13;;;4.10;98.10;;;;;;5063381;28;20058;-66
2021/12/05 16:43:23;;;;;;;37.28;26.58;;;4.10;98.10;;;;;;5061203;28;20103;-67
2021/12/05 16:45:53;;;;;;;38.38;26.25;;;4.10;98.00;;;;;;5061273;28;20090;-66
2021/12/05 16:48:19;;;;;;;38.17;27.42;;;4.10;98.30;;;;;;5073748;28;20086;-67
2021/12/05 16:50:45;;;;;;;39.65;26.42;;;4.10;97.90;;;;;;5062062;28;20670;-66
2021/12/05 16:53:13;;;;;;;42.10;26.45;;;4.10;98.00;;;;;;5057139;28;20036;-66
2021/12/05 16:55:45;;;;;;;37.83;26.58;;;4.10;98.00;;;;;;5059739;28;20093;-66
2021/12/05 16:58:20;;;;;;;37.70;27.08;;;4.10;98.10;;;;;;5060440;28;20021;-66
2021/12/05 17:00:51;;;;;;;42.65;27.38;;;4.10;98.00;;;;;;5055695;28;20033;-66
2021/12/05 17:03:20;;;;;;;41.10;28.20;;;4.10;97.90;;;;;;5050361;28;20535;-66
2021/12/05 17:05:48;;;;;;;39.80;25.80;;;4.10;97.90;;;;;;5052547;28;20041;-66
2021/12/05 17:08:18;;;;;;;37.25;27.15;;;4.20;97.90;;;;;;5053265;28;20458;-66
2021/12/05 17:11:09;;;;;;;42.08;27.33;;;4.20;97.80;;;;;;5047951;28;20112;-65
2021/12/05 17:13:46;;;;;;;40.83;27.25;;;4.10;97.90;;;;;;5051489;28;20024;-67
2021/12/05 17:16:20;;;;;;;41.28;27.60;;;4.10;97.90;;;;;;5051196;28;20033;-67
2021/12/05 17:19:07;;;;;;;37.70;26.30;;;4.10;98.00;;;;;;5051404;28;20450;-66
2021/12/05 17:21:38;;;;;;;46.63;28.67;;;4.10;97.90;;;;;;5052239;28;20815;-67
2021/12/05 17:24:12;;;;;;;204.83;118.07;;;4.10;98.00;;;;;;5052481;28;20021;-67
2021/12/05 17:26:43;;;;;;;235.35;152.98;;;4.20;98.10;;;;;;5051185;28;20323;-68
2021/12/05 17:29:19;;;;;;;174.07;112.40;;;4.10;98.10;;;;;;5045663;28;20399;-67
2021/12/05 17:31:56;;;;;;;53.60;36.63;;;4.20;98.10;;;;;;5047147;28;20854;-68
2021/12/05 17:34:29;;;;;;;43.95;30.60;;;4.20;98.00;;;;;;5051052;28;20709;-65
2021/12/05 17:37:01;;;;;;;42.83;29.23;;;4.30;98.00;;;;;;5051962;28;20029;-65
2021/12/05 17:39:30;;;;;;;48.67;30.83;;;4.20;98.00;;;;;;5052551;28;20404;-66
2021/12/05 17:42:02;;;;;;;41.80;28.80;;;4.20;98.10;;;;;;5050568;28;20121;-66
2021/12/05 17:44:28;;;;;;;;;;;4.20;98.00;;;;;;5050747;28;20025;-66
2021/12/05 17:46:56;;;;;;;43.72;29.70;;;4.20;98.00;;;;;;5053066;28;20382;-66
2021/12/05 17:49:25;;;;;;;48.42;33.03;;;4.20;98.10;;;;;;5051387;28;20028;-65
2021/12/05 17:51:51;;;;;;;46.67;30.80;;;4.20;98.10;;;;;;5051551;28;20024;-65
2021/12/05 17:54:26;;;;;;;40.88;27.33;;;4.20;98.10;;;;;;5051497;28;20454;-66
2021/12/05 17:56:54;;;;;;;47.03;31.42;;;4.10;98.20;;;;;;5053828;28;20040;-67
2021/12/05 17:59:30;;;;;;;42.28;29.73;;;4.10;98.30;;;;;;5052793;28;20898;-67
2021/12/05 18:04:49;;;;;;;59.83;41.38;;;4.10;98.50;;;;;;5048911;28;20027;-66
2021/12/05 18:07:18;;;;;;;56.20;40.40;;;4.10;98.50;;;;;;5053229;28;20056;-67
2021/12/05 18:09:44;;;;;;;43.95;31.02;;;4.20;98.40;;;;;;5052503;28;20057;-66
2021/12/05 18:12:19;;;;;;;35.42;24.80;;;4.20;98.30;;;;;;5053461;28;20061;-68
2021/12/05 18:14:44;;;;;;;37.40;26.33;;;4.20;98.30;;;;;;5050603;28;20029;-68
2021/12/05 18:17:10;;;;;;;67.43;43.05;;;4.10;98.40;;;;;;5051663;28;20492;-66
2021/12/05 18:19:40;;;;;;;57.05;37.90;;;4.10;98.50;;;;;;5050949;28;20082;-66
2021/12/05 18:22:07;;;;;;;36.20;26.60;;;4.10;98.50;;;;;;5053460;28;20024;-66
2021/12/05 18:24:33;;;;;;;40.42;28.08;;;4.10;98.50;;;;;;5053428;28;20024;-68
2021/12/05 18:26:59;;;;;;;34.47;24.33;;;4.10;98.50;;;;;;5049276;28;20032;-66
2021/12/05 18:29:24;;;;;;;37.78;26.25;;;4.10;98.50;;;;;;5049921;28;20032;-66